createdAt,value
2023-01-07T00:02:08.392Z,5.45
2023-01-07T00:05:10.957Z,5.31
2023-01-07T00:08:13.233Z,5.35
2023-01-07T00:11:20.077Z,5.21
2023-01-07T00:14:22.324Z,5.32
2023-01-07T00:17:24.893Z,5.33
2023-01-07T00:20:27.125Z,5.30
2023-01-07T00:23:31.308Z,5.29
2023-01-07T00:26:36.423Z,5.37
2023-01-07T00:29:39.136Z,5.32
2023-01-07T00:33:01.793Z,5.42
2023-01-07T00:36:10.193Z,5.46
2023-01-07T00:39:20.691Z,5.53
2023-01-07T00:42:41.817Z,5.50
2023-01-07T00:45:44.403Z,5.48
2023-01-07T00:48:47.575Z,5.53
2023-01-07T00:51:50.836Z,5.67
2023-01-07T00:54:53.365Z,5.80
2023-01-07T00:57:56.037Z,5.77
2023-01-07T01:01:00.954Z,5.77
2023-01-07T01:04:03.342Z,5.81
2023-01-07T01:07:07.121Z,5.80
2023-01-07T01:10:13.290Z,5.82
2023-01-07T01:13:18.429Z,5.71
2023-01-07T01:16:20.962Z,5.74
2023-01-07T01:19:24.236Z,5.68
2023-01-07T01:22:26.480Z,5.75
2023-01-07T01:25:28.991Z,5.69
2023-01-07T01:28:31.783Z,5.66
2023-01-07T01:31:34.400Z,5.65
2023-01-07T01:34:36.706Z,5.61
2023-01-07T01:37:39.249Z,5.57
2023-01-07T01:40:41.955Z,5.53
2023-01-07T01:43:45.520Z,5.38
2023-01-07T01:46:49.007Z,5.40
2023-01-07T01:50:15.619Z,5.29
2023-01-07T01:53:28.472Z,5.27
2023-01-07T01:56:35.906Z,5.29
2023-01-07T01:59:42.228Z,5.18
2023-01-07T02:02:50.721Z,5.23
2023-01-07T02:05:53.816Z,5.19
2023-01-07T02:08:56.220Z,5.12
2023-01-07T02:12:27.748Z,5.08
2023-01-07T02:15:57.369Z,5.03
2023-01-07T02:19:08.272Z,4.99
2023-01-07T02:22:28.817Z,4.87
2023-01-07T02:26:08.007Z,4.85
2023-01-07T02:29:44.135Z,4.99
2023-01-07T02:33:17.684Z,4.85
2023-01-07T02:36:32.194Z,4.84
2023-01-07T02:39:57.302Z,4.80
2023-01-07T02:43:11.889Z,4.78
2023-01-07T02:46:27.739Z,4.72
2023-01-07T02:49:29.984Z,4.71
2023-01-07T02:52:34.420Z,4.72
2023-01-07T02:56:01.329Z,4.56
2023-01-07T02:59:28.592Z,4.54
2023-01-07T03:02:48.271Z,4.47
2023-01-07T03:06:19.440Z,4.42
2023-01-07T03:09:32.675Z,4.35
2023-01-07T03:12:42.571Z,4.39
2023-01-07T03:15:50.835Z,4.23
2023-01-07T03:19:00.894Z,4.25
2023-01-07T03:22:08.280Z,4.20
2023-01-07T03:25:13.255Z,4.08
2023-01-07T03:28:20.459Z,4.01
2023-01-07T03:31:23.105Z,4.04
2023-01-07T03:34:28.164Z,3.93
2023-01-07T03:37:32.567Z,3.83
2023-01-07T03:40:35.123Z,3.82
2023-01-07T03:43:37.786Z,3.87
2023-01-07T03:46:40.859Z,3.94
2023-01-07T03:49:43.498Z,3.87
2023-01-07T03:52:48.731Z,3.77
2023-01-07T03:55:51.935Z,3.76
2023-01-07T03:58:54.499Z,3.73
2023-01-07T04:01:58.480Z,3.78
2023-01-07T04:05:01.623Z,3.82
2023-01-07T04:08:04.114Z,3.77
2023-01-07T04:11:06.986Z,3.71
2023-01-07T04:14:09.566Z,3.76
2023-01-07T04:17:12.205Z,3.68
2023-01-07T04:20:14.507Z,3.70
2023-01-07T04:23:17.487Z,3.67
2023-01-07T04:26:19.970Z,3.51
2023-01-07T04:29:23.173Z,3.44
2023-01-07T04:32:25.448Z,3.26
2023-01-07T04:35:27.940Z,3.38
2023-01-07T04:38:30.281Z,3.43
2023-01-07T04:41:32.791Z,3.38
2023-01-07T04:44:35.179Z,3.45
2023-01-07T04:47:37.648Z,3.42
2023-01-07T04:50:39.839Z,3.41
2023-01-07T04:53:42.703Z,3.42
2023-01-07T04:56:45.770Z,3.41
2023-01-07T04:59:48.571Z,3.40
2023-01-07T05:02:50.891Z,3.42
2023-01-07T05:05:53.585Z,3.46
2023-01-07T05:08:56.197Z,3.55
2023-01-07T05:11:58.791Z,3.63
2023-01-07T05:15:02.493Z,3.64
2023-01-07T05:18:05.508Z,3.60
2023-01-07T05:21:10.498Z,3.53
2023-01-07T05:24:13.569Z,3.53
2023-01-07T05:27:15.960Z,3.49
2023-01-07T05:30:18.493Z,3.32
2023-01-07T05:33:20.878Z,3.18
2023-01-07T05:36:23.522Z,3.12
2023-01-07T05:39:26.307Z,3.26
2023-01-07T05:42:29.436Z,3.32
2023-01-07T05:45:31.667Z,3.35
2023-01-07T05:48:34.232Z,3.42
2023-01-07T05:51:36.523Z,3.44
2023-01-07T05:54:39.012Z,3.45
2023-01-07T05:57:41.264Z,3.57
2023-01-07T06:00:44.004Z,3.63
2023-01-07T06:03:46.593Z,3.66
2023-01-07T06:06:48.809Z,3.71
2023-01-07T06:09:51.265Z,3.80
2023-01-07T06:12:53.534Z,3.83
2023-01-07T06:16:08.440Z,3.93
2023-01-07T06:19:11.312Z,3.99
2023-01-07T06:22:14.677Z,4.07
2023-01-07T06:25:17.271Z,4.19
2023-01-07T06:28:20.362Z,4.17
2023-01-07T06:31:22.837Z,4.16
2023-01-07T06:34:25.469Z,4.21
2023-01-07T06:37:27.736Z,4.11
2023-01-07T06:40:30.479Z,4.12
2023-01-07T06:43:32.985Z,4.10
2023-01-07T06:46:36.008Z,4.02
2023-01-07T06:49:38.297Z,4.00
2023-01-07T06:52:40.819Z,4.07
2023-01-07T06:55:48.921Z,3.99
2023-01-07T06:58:51.427Z,3.95
2023-01-07T07:01:53.834Z,3.84
2023-01-07T07:04:56.451Z,3.74
2023-01-07T07:08:00.283Z,3.70
2023-01-07T07:11:02.890Z,3.55
2023-01-07T07:14:05.255Z,3.64
2023-01-07T07:17:07.820Z,3.63
2023-01-07T07:20:10.783Z,3.58
2023-01-07T07:23:13.461Z,3.43
2023-01-07T07:26:15.708Z,3.46
2023-01-07T07:29:19.285Z,3.40
2023-01-07T07:32:28.237Z,3.28
2023-01-07T07:35:31.317Z,3.28
2023-01-07T07:38:33.549Z,3.40
2023-01-07T07:41:36.026Z,3.38
2023-01-07T07:44:40.678Z,3.40
2023-01-07T07:47:43.563Z,3.37
2023-01-07T07:50:50.783Z,3.46
2023-01-07T07:53:53.424Z,3.57
2023-01-07T07:56:56.141Z,3.75
2023-01-07T07:59:58.705Z,3.84
2023-01-07T08:03:01.440Z,3.92
2023-01-07T08:06:05.327Z,4.04
2023-01-07T08:09:07.710Z,4.17
2023-01-07T08:12:10.224Z,4.23
2023-01-07T08:15:12.758Z,4.37
2023-01-07T08:18:15.343Z,4.50
2023-01-07T08:21:17.757Z,4.61
2023-01-07T08:24:20.252Z,4.69
2023-01-07T08:27:22.935Z,4.81
2023-01-07T08:30:26.319Z,4.91
2023-01-07T08:33:28.529Z,5.02
2023-01-07T08:36:31.058Z,5.15
2023-01-07T08:39:33.245Z,5.23
2023-01-07T08:42:35.721Z,5.29
2023-01-07T08:45:38.070Z,5.37
2023-01-07T08:48:40.591Z,5.45
2023-01-07T08:51:42.804Z,5.49
2023-01-07T08:54:47.950Z,5.53
2023-01-07T08:57:51.406Z,5.57
2023-01-07T09:00:53.995Z,5.67
2023-01-07T09:03:56.259Z,5.76
2023-01-07T09:06:58.746Z,5.88
2023-01-07T09:10:00.978Z,5.99
2023-01-07T09:13:03.500Z,6.12
2023-01-07T09:16:06.519Z,6.29
2023-01-07T09:19:09.182Z,6.50
2023-01-07T09:22:11.501Z,6.70
2023-01-07T09:25:14.038Z,6.88
2023-01-07T09:28:16.347Z,7.05
2023-01-07T09:31:19.033Z,7.26
2023-01-07T09:34:21.339Z,7.38
2023-01-07T09:37:23.976Z,7.53
2023-01-07T09:40:30.604Z,7.70
2023-01-07T09:43:59.864Z,7.80
2023-01-07T09:47:05.626Z,7.88
2023-01-07T09:50:24.922Z,8.02
2023-01-07T09:53:38.989Z,8.12
2023-01-07T09:56:41.841Z,8.22
2023-01-07T09:59:45.116Z,8.34
2023-01-07T10:03:09.229Z,8.46
2023-01-07T10:06:16.239Z,8.62
2023-01-07T10:09:21.226Z,8.73
2023-01-07T10:12:33.181Z,8.80
2023-01-07T10:16:05.045Z,8.87
2023-01-07T10:19:42.794Z,8.93
2023-01-07T10:22:52.043Z,9.02
2023-01-07T10:25:57.461Z,9.15
2023-01-07T10:29:12.746Z,9.25
2023-01-07T10:32:17.717Z,9.35
2023-01-07T10:35:23.586Z,9.43
2023-01-07T10:38:29.330Z,9.52
2023-01-07T10:42:17.244Z,9.62
2023-01-07T10:45:41.649Z,9.71
2023-01-07T10:49:10.285Z,9.81
2023-01-07T10:52:27.012Z,9.88
2023-01-07T10:55:39.462Z,9.94
2023-01-07T10:58:43.914Z,10.03
2023-01-07T11:01:51.851Z,10.12
2023-01-07T11:04:56.348Z,10.21
2023-01-07T11:08:01.629Z,10.26
2023-01-07T11:11:05.455Z,10.30
2023-01-07T11:14:15.266Z,10.40
2023-01-07T11:17:32.719Z,10.48
2023-01-07T11:20:55.728Z,10.55
2023-01-07T11:23:58.761Z,10.63
2023-01-07T11:27:23.277Z,10.68
2023-01-07T11:30:33.472Z,10.79
2023-01-07T11:34:01.511Z,10.88
2023-01-07T11:37:06.867Z,10.99
2023-01-07T11:40:15.017Z,11.07
2023-01-07T11:43:17.424Z,11.13
2023-01-07T11:46:24.514Z,11.17
2023-01-07T11:49:30.799Z,11.27
2023-01-07T11:52:33.043Z,11.38
2023-01-07T11:55:35.571Z,11.46
2023-01-07T11:58:38.862Z,11.51
2023-01-07T12:01:44.138Z,11.56
2023-01-07T12:04:46.608Z,11.64
2023-01-07T12:07:51.303Z,11.73
2023-01-07T12:10:56.060Z,11.76
2023-01-07T12:14:20.629Z,11.80
2023-01-07T12:17:25.149Z,11.86
2023-01-07T12:20:51.262Z,11.89
2023-01-07T12:24:09.455Z,11.96
2023-01-07T12:27:22.486Z,12.01
2023-01-07T12:30:54.560Z,12.04
2023-01-07T12:34:21.666Z,12.04
2023-01-07T12:37:29.892Z,12.10
2023-01-07T12:40:34.441Z,12.16
2023-01-07T12:43:48.006Z,12.12
2023-01-07T12:47:32.507Z,12.17
2023-01-07T12:50:44.437Z,12.22
2023-01-07T12:53:52.964Z,12.20
2023-01-07T12:57:02.355Z,12.23
2023-01-07T13:00:21.410Z,12.16
2023-01-07T13:03:55.251Z,12.22
2023-01-07T13:07:17.575Z,12.24
2023-01-07T13:10:33.694Z,12.26
2023-01-07T13:13:49.141Z,12.32
2023-01-07T13:16:51.692Z,12.37
2023-01-07T13:19:54.470Z,12.43
2023-01-07T13:22:58.463Z,12.40
2023-01-07T13:26:20.504Z,12.41
2023-01-07T13:29:28.920Z,12.36
2023-01-07T13:32:47.790Z,12.37
2023-01-07T13:36:16.814Z,12.38
2023-01-07T13:39:33.703Z,12.35
2023-01-07T13:43:03.639Z,12.37
2023-01-07T13:46:12.428Z,12.32
2023-01-07T13:49:30.101Z,12.33
2023-01-07T13:52:34.245Z,12.36
2023-01-07T13:55:39.768Z,12.32
2023-01-07T13:58:45.167Z,12.26
2023-01-07T14:02:18.658Z,12.31
2023-01-07T14:05:29.863Z,12.31
2023-01-07T14:08:32.136Z,12.20
2023-01-07T14:11:36.031Z,12.16
2023-01-07T14:14:59.520Z,12.14
2023-01-07T14:18:43.783Z,12.00
2023-01-07T14:22:16.294Z,11.89
2023-01-07T14:25:45.143Z,11.69
2023-01-07T14:29:14.931Z,11.61
2023-01-07T14:32:37.644Z,11.51
2023-01-07T14:35:42.662Z,11.31
2023-01-07T14:38:46.924Z,11.20
2023-01-07T14:42:20.261Z,10.99
2023-01-07T14:45:41.301Z,10.85
2023-01-07T14:48:43.447Z,10.67
2023-01-07T14:52:08.236Z,10.66
2023-01-07T14:56:12.624Z,10.49
2023-01-07T14:59:59.895Z,10.39
2023-01-07T15:03:39.664Z,10.20
2023-01-07T15:06:43.295Z,9.87
2023-01-07T15:10:39.203Z,9.70
2023-01-07T15:14:08.466Z,9.69
2023-01-07T15:17:14.253Z,9.59
2023-01-07T15:20:16.916Z,9.51
2023-01-07T15:23:39.052Z,9.36
2023-01-07T15:26:41.415Z,9.27
2023-01-07T15:30:17.833Z,9.08
2023-01-07T15:33:39.764Z,8.99
2023-01-07T15:36:45.389Z,8.86
2023-01-07T15:39:57.937Z,8.74
2023-01-07T15:43:00.521Z,8.65
2023-01-07T15:46:06.359Z,8.56
2023-01-07T15:49:08.496Z,8.55
2023-01-07T15:52:22.909Z,8.50
2023-01-07T15:55:30.525Z,8.41
2023-01-07T15:58:40.321Z,8.41
2023-01-07T16:01:48.419Z,8.39
2023-01-07T16:04:57.467Z,8.30
2023-01-07T16:08:01.306Z,8.29
2023-01-07T16:11:21.885Z,8.34
2023-01-07T16:14:26.441Z,8.40
2023-01-07T16:17:28.956Z,8.32
2023-01-07T16:20:37.495Z,8.25
2023-01-07T16:23:40.795Z,8.10
2023-01-07T16:26:49.495Z,8.12
2023-01-07T16:29:54.776Z,7.94
2023-01-07T16:32:57.601Z,7.90
2023-01-07T16:36:04.245Z,7.83
2023-01-07T16:39:18.018Z,7.82
2023-01-07T16:42:24.895Z,7.77
2023-01-07T16:45:32.658Z,7.75
2023-01-07T16:48:35.143Z,7.72
2023-01-07T16:51:59.174Z,7.54
2023-01-07T16:55:01.645Z,7.64
2023-01-07T16:58:03.837Z,7.69
2023-01-07T17:01:07.325Z,7.63
2023-01-07T17:04:18.283Z,7.41
2023-01-07T17:07:28.419Z,7.32
2023-01-07T17:10:36.248Z,7.28
2023-01-07T17:13:39.588Z,7.23
2023-01-07T17:16:42.039Z,7.14
2023-01-07T17:20:22.377Z,7.22
2023-01-07T17:23:27.379Z,7.13
2023-01-07T17:26:31.066Z,7.12
2023-01-07T17:29:43.333Z,7.15
2023-01-07T17:32:47.467Z,7.02
2023-01-07T17:35:50.500Z,6.96
2023-01-07T17:38:53.629Z,6.84
2023-01-07T17:42:14.856Z,6.86
2023-01-07T17:45:19.783Z,6.79
2023-01-07T17:48:22.104Z,6.84
2023-01-07T17:51:26.427Z,6.85
2023-01-07T17:54:28.615Z,6.87
2023-01-07T17:57:31.075Z,6.82
2023-01-07T18:00:35.935Z,6.79
2023-01-07T18:03:38.718Z,6.70
2023-01-07T18:06:43.056Z,6.66
2023-01-07T18:09:45.616Z,6.72
2023-01-07T18:12:48.129Z,6.76
2023-01-07T18:15:50.560Z,6.75
2023-01-07T18:18:53.475Z,6.78
2023-01-07T18:21:55.978Z,6.67
2023-01-07T18:24:58.141Z,6.73
2023-01-07T18:28:00.582Z,6.64
2023-01-07T18:31:02.785Z,6.62
2023-01-07T18:34:05.213Z,6.61
2023-01-07T18:37:07.456Z,6.58
2023-01-07T18:40:10.260Z,6.63
2023-01-07T18:43:14.958Z,6.64
2023-01-07T18:46:17.793Z,6.61
2023-01-07T18:49:20.367Z,6.63
2023-01-07T18:52:22.825Z,6.56
2023-01-07T18:55:26.942Z,6.50
2023-01-07T18:58:29.429Z,6.46
2023-01-07T19:01:31.817Z,6.46
2023-01-07T19:04:37.431Z,6.42
2023-01-07T19:07:41.302Z,6.40
2023-01-07T19:10:45.047Z,6.43
2023-01-07T19:13:47.270Z,6.45
2023-01-07T19:16:50.735Z,6.48
2023-01-07T19:19:52.949Z,6.53
2023-01-07T19:23:00.240Z,6.44
2023-01-07T19:26:05.687Z,6.46
2023-01-07T19:29:08.705Z,6.54
2023-01-07T19:32:10.839Z,6.55
2023-01-07T19:35:13.479Z,6.54
2023-01-07T19:38:16.500Z,6.48
2023-01-07T19:41:20.565Z,6.57
2023-01-07T19:44:22.831Z,6.54
2023-01-07T19:47:25.346Z,6.56
2023-01-07T19:50:27.519Z,6.58
2023-01-07T19:53:31.094Z,6.62
2023-01-07T19:56:34.447Z,6.63
2023-01-07T19:59:36.936Z,6.53
2023-01-07T20:02:39.098Z,6.51
2023-01-07T20:05:41.540Z,6.51
2023-01-07T20:08:44.398Z,6.49
2023-01-07T20:11:47.196Z,6.62
2023-01-07T20:14:49.368Z,6.61
2023-01-07T20:17:51.872Z,6.49
2023-01-07T20:20:57.837Z,6.56
2023-01-07T20:24:00.470Z,6.63
2023-01-07T20:27:03.216Z,6.58
2023-01-07T20:30:08.045Z,6.54
2023-01-07T20:33:10.246Z,6.62
2023-01-07T20:36:15.240Z,6.56
2023-01-07T20:39:17.538Z,6.54
2023-01-07T20:42:20.230Z,6.57
2023-01-07T20:45:22.418Z,6.57
2023-01-07T20:48:25.024Z,6.55
2023-01-07T20:51:27.632Z,6.60
2023-01-07T20:54:30.083Z,6.66
2023-01-07T20:57:32.236Z,6.67
2023-01-07T21:00:35.002Z,6.68
2023-01-07T21:03:38.829Z,6.61
2023-01-07T21:06:41.572Z,6.65
2023-01-07T21:09:44.864Z,6.65
2023-01-07T21:12:47.353Z,6.73
2023-01-07T21:15:50.173Z,6.67
2023-01-07T21:18:52.659Z,6.58
2023-01-07T21:21:54.983Z,6.48
2023-01-07T21:24:57.486Z,6.57
2023-01-07T21:27:59.685Z,6.60
2023-01-07T21:31:06.052Z,6.59
2023-01-07T21:34:09.971Z,6.61
2023-01-07T21:37:12.706Z,6.68
2023-01-07T21:40:15.244Z,6.61
2023-01-07T21:43:17.665Z,6.48
2023-01-07T21:46:22.520Z,6.49
2023-01-07T21:49:25.232Z,6.58
2023-01-07T21:52:27.536Z,6.58
2023-01-07T21:55:29.958Z,6.62
2023-01-07T21:58:32.327Z,6.61
2023-01-07T22:01:35.026Z,6.56
2023-01-07T22:04:40.615Z,6.63
2023-01-07T22:07:42.782Z,6.69
2023-01-07T22:10:48.491Z,6.70
2023-01-07T22:13:55.572Z,6.70
2023-01-07T22:16:58.302Z,6.69
2023-01-07T22:20:00.672Z,6.74
2023-01-07T22:23:03.200Z,6.78
2023-01-07T22:26:07.726Z,6.67
2023-01-07T22:29:10.444Z,6.72
2023-01-07T22:32:12.624Z,6.84
2023-01-07T22:35:15.092Z,6.81
2023-01-07T22:38:20.830Z,6.88
2023-01-07T22:41:24.670Z,6.77
2023-01-07T22:44:37.207Z,6.66
2023-01-07T22:47:45.277Z,6.66
2023-01-07T22:50:47.692Z,6.63
2023-01-07T22:53:52.356Z,6.54
2023-01-07T22:56:54.790Z,6.49
2023-01-07T22:59:59.038Z,6.58
2023-01-07T23:03:01.313Z,6.59
2023-01-07T23:06:04.439Z,6.65
2023-01-07T23:09:06.627Z,6.61
2023-01-07T23:12:11.058Z,6.53
2023-01-07T23:15:13.333Z,6.51
2023-01-07T23:18:16.287Z,6.53
2023-01-07T23:21:18.603Z,6.58
2023-01-07T23:24:22.488Z,6.55
2023-01-07T23:27:24.650Z,6.54
2023-01-07T23:30:27.100Z,6.48
2023-01-07T23:33:29.252Z,6.52
2023-01-07T23:36:31.766Z,6.54
2023-01-07T23:39:33.943Z,6.59
2023-01-07T23:42:36.525Z,6.68
2023-01-07T23:45:38.801Z,6.60
2023-01-07T23:48:41.339Z,6.61
2023-01-07T23:51:43.503Z,6.66
2023-01-07T23:54:46.255Z,6.68
2023-01-07T23:57:48.468Z,6.61
